sensor_id;sensor_type;location;lat;lon;timestamp;temperature;humidity
52267;DHT22;38223;50.940;4.034;2024-02-26T00:02:15;7.40;99.90
52267;DHT22;38223;50.940;4.034;2024-02-26T00:04:42;7.30;99.90
52267;DHT22;38223;50.940;4.034;2024-02-26T00:07:09;7.30;99.90
52267;DHT22;38223;50.940;4.034;2024-02-26T00:09:36;7.30;99.90
52267;DHT22;38223;50.940;4.034;2024-02-26T00:12:03;7.30;99.90
52267;DHT22;38223;50.940;4.034;2024-02-26T00:14:30;7.30;99.90
52267;DHT22;38223;50.940;4.034;2024-02-26T00:16:57;7.30;99.90
52267;DHT22;38223;50.940;4.034;2024-02-26T00:19:25;7.20;99.90
52267;DHT22;38223;50.940;4.034;2024-02-26T00:21:55;7.20;99.90
52267;DHT22;38223;50.940;4.034;2024-02-26T00:24:27;7.20;99.90
52267;DHT22;38223;50.940;4.034;2024-02-26T00:26:59;7.20;99.90
52267;DHT22;38223;50.940;4.034;2024-02-26T00:29:33;7.20;99.90
52267;DHT22;38223;50.940;4.034;2024-02-26T00:32:00;7.10;99.90
52267;DHT22;38223;50.940;4.034;2024-02-26T00:34:26;7.10;99.90
52267;DHT22;38223;50.940;4.034;2024-02-26T00:36:55;7.00;99.90
52267;DHT22;38223;50.940;4.034;2024-02-26T00:39:26;7.10;99.90
52267;DHT22;38223;50.940;4.034;2024-02-26T00:41:54;7.00;99.90
52267;DHT22;38223;50.940;4.034;2024-02-26T00:44:24;7.00;99.90
52267;DHT22;38223;50.940;4.034;2024-02-26T00:46:56;7.00;99.90
52267;DHT22;38223;50.940;4.034;2024-02-26T00:49:26;7.00;99.90
52267;DHT22;38223;50.940;4.034;2024-02-26T00:51:55;7.00;99.90
52267;DHT22;38223;50.940;4.034;2024-02-26T00:54:28;7.00;99.90
52267;DHT22;38223;50.940;4.034;2024-02-26T00:56:56;7.10;99.90
52267;DHT22;38223;50.940;4.034;2024-02-26T00:59:24;7.10;99.90
52267;DHT22;38223;50.940;4.034;2024-02-26T01:01:58;7.10;99.90
52267;DHT22;38223;50.940;4.034;2024-02-26T01:04:30;7.00;99.90
52267;DHT22;38223;50.940;4.034;2024-02-26T01:07:02;7.10;99.90
52267;DHT22;38223;50.940;4.034;2024-02-26T01:09:29;7.00;99.90
52267;DHT22;38223;50.940;4.034;2024-02-26T01:11:56;7.00;99.90
52267;DHT22;38223;50.940;4.034;2024-02-26T01:14:23;7.00;99.90
52267;DHT22;38223;50.940;4.034;2024-02-26T01:16:56;7.00;99.90
52267;DHT22;38223;50.940;4.034;2024-02-26T01:19:26;7.00;99.90
52267;DHT22;38223;50.940;4.034;2024-02-26T01:21:54;6.90;99.90
52267;DHT22;38223;50.940;4.034;2024-02-26T01:24:21;6.90;99.90
52267;DHT22;38223;50.940;4.034;2024-02-26T01:26:50;6.90;99.90
52267;DHT22;38223;50.940;4.034;2024-02-26T01:29:24;6.90;99.90
52267;DHT22;38223;50.940;4.034;2024-02-26T01:31:55;6.80;99.90
52267;DHT22;38223;50.940;4.034;2024-02-26T01:34:28;6.70;99.90
52267;DHT22;38223;50.940;4.034;2024-02-26T01:36:57;6.80;99.90
52267;DHT22;38223;50.940;4.034;2024-02-26T01:39:28;6.80;99.90
52267;DHT22;38223;50.940;4.034;2024-02-26T01:41:58;6.80;99.90
52267;DHT22;38223;50.940;4.034;2024-02-26T01:44:31;6.70;99.90
52267;DHT22;38223;50.940;4.034;2024-02-26T01:47:00;6.70;99.90
52267;DHT22;38223;50.940;4.034;2024-02-26T01:49:30;6.70;99.90
52267;DHT22;38223;50.940;4.034;2024-02-26T01:52:03;6.70;99.90
52267;DHT22;38223;50.940;4.034;2024-02-26T01:54:37;6.70;99.90
52267;DHT22;38223;50.940;4.034;2024-02-26T01:57:05;6.70;99.90
52267;DHT22;38223;50.940;4.034;2024-02-26T01:59:34;6.80;99.90
52267;DHT22;38223;50.940;4.034;2024-02-26T02:02:05;6.80;99.90
52267;DHT22;38223;50.940;4.034;2024-02-26T02:04:38;6.80;99.90
52267;DHT22;38223;50.940;4.034;2024-02-26T02:07:06;6.70;99.90
52267;DHT22;38223;50.940;4.034;2024-02-26T02:09:39;6.70;99.90
52267;DHT22;38223;50.940;4.034;2024-02-26T02:12:06;6.70;99.90
52267;DHT22;38223;50.940;4.034;2024-02-26T02:14:35;6.70;99.90
52267;DHT22;38223;50.940;4.034;2024-02-26T02:17:05;6.70;99.90
52267;DHT22;38223;50.940;4.034;2024-02-26T02:19:38;6.70;99.90
52267;DHT22;38223;50.940;4.034;2024-02-26T02:22:08;6.70;99.90
52267;DHT22;38223;50.940;4.034;2024-02-26T02:24:39;6.70;99.90
52267;DHT22;38223;50.940;4.034;2024-02-26T02:27:09;6.70;99.90
52267;DHT22;38223;50.940;4.034;2024-02-26T02:29:42;6.70;99.90
52267;DHT22;38223;50.940;4.034;2024-02-26T02:32:13;6.70;99.90
52267;DHT22;38223;50.940;4.034;2024-02-26T02:34:43;6.60;99.90
52267;DHT22;38223;50.940;4.034;2024-02-26T02:37:13;6.60;99.90
52267;DHT22;38223;50.940;4.034;2024-02-26T02:39:40;6.60;99.90
52267;DHT22;38223;50.940;4.034;2024-02-26T02:42:08;6.60;99.90
52267;DHT22;38223;50.940;4.034;2024-02-26T02:44:40;6.60;99.90
52267;DHT22;38223;50.940;4.034;2024-02-26T02:47:11;6.60;99.90
52267;DHT22;38223;50.940;4.034;2024-02-26T02:49:39;6.50;99.90
52267;DHT22;38223;50.940;4.034;2024-02-26T02:52:07;6.50;99.90
52267;DHT22;38223;50.940;4.034;2024-02-26T02:54:35;6.60;99.90
52267;DHT22;38223;50.940;4.034;2024-02-26T02:57:05;6.50;99.90
52267;DHT22;38223;50.940;4.034;2024-02-26T02:59:35;6.50;99.90
52267;DHT22;38223;50.940;4.034;2024-02-26T03:02:05;6.50;99.90
52267;DHT22;38223;50.940;4.034;2024-02-26T03:04:32;6.50;99.90
52267;DHT22;38223;50.940;4.034;2024-02-26T03:06:59;6.40;99.90
52267;DHT22;38223;50.940;4.034;2024-02-26T03:09:26;6.40;99.90
52267;DHT22;38223;50.940;4.034;2024-02-26T03:11:54;6.40;99.90
52267;DHT22;38223;50.940;4.034;2024-02-26T03:14:21;6.40;99.90
52267;DHT22;38223;50.940;4.034;2024-02-26T03:16:53;6.40;99.90
52267;DHT22;38223;50.940;4.034;2024-02-26T03:19:20;6.40;99.90
52267;DHT22;38223;50.940;4.034;2024-02-26T03:21:47;6.40;99.90
52267;DHT22;38223;50.940;4.034;2024-02-26T03:24:20;6.30;99.90
52267;DHT22;38223;50.940;4.034;2024-02-26T03:26:46;6.30;99.90
52267;DHT22;38223;50.940;4.034;2024-02-26T03:29:18;6.40;99.90
52267;DHT22;38223;50.940;4.034;2024-02-26T03:34:26;6.30;99.90
52267;DHT22;38223;50.940;4.034;2024-02-26T03:36:53;6.30;99.90
52267;DHT22;38223;50.940;4.034;2024-02-26T03:39:24;6.30;99.90
52267;DHT22;38223;50.940;4.034;2024-02-26T03:41:53;6.30;99.90
52267;DHT22;38223;50.940;4.034;2024-02-26T03:44:24;6.30;99.90
52267;DHT22;38223;50.940;4.034;2024-02-26T03:46:54;6.30;99.90
52267;DHT22;38223;50.940;4.034;2024-02-26T03:49:22;6.40;99.90
52267;DHT22;38223;50.940;4.034;2024-02-26T03:51:51;6.30;99.90
52267;DHT22;38223;50.940;4.034;2024-02-26T03:54:20;6.40;99.90
52267;DHT22;38223;50.940;4.034;2024-02-26T03:56:52;6.30;99.90
52267;DHT22;38223;50.940;4.034;2024-02-26T03:59:21;6.30;99.90
52267;DHT22;38223;50.940;4.034;2024-02-26T04:01:50;6.30;99.90
52267;DHT22;38223;50.940;4.034;2024-02-26T04:04:19;6.30;99.90
52267;DHT22;38223;50.940;4.034;2024-02-26T04:06:47;6.30;99.90
52267;DHT22;38223;50.940;4.034;2024-02-26T04:09:22;6.30;99.90
52267;DHT22;38223;50.940;4.034;2024-02-26T04:11:49;6.30;99.90
52267;DHT22;38223;50.940;4.034;2024-02-26T04:14:25;6.30;99.90
52267;DHT22;38223;50.940;4.034;2024-02-26T04:16:52;6.30;99.90
52267;DHT22;38223;50.940;4.034;2024-02-26T04:19:22;6.30;99.90
52267;DHT22;38223;50.940;4.034;2024-02-26T04:21:50;6.40;99.90
52267;DHT22;38223;50.940;4.034;2024-02-26T04:24:25;6.30;99.90
52267;DHT22;38223;50.940;4.034;2024-02-26T04:26:58;6.30;99.90
52267;DHT22;38223;50.940;4.034;2024-02-26T04:29:24;6.30;99.90
52267;DHT22;38223;50.940;4.034;2024-02-26T04:31:54;6.30;99.90
52267;DHT22;38223;50.940;4.034;2024-02-26T04:34:25;6.30;99.90
52267;DHT22;38223;50.940;4.034;2024-02-26T04:36:52;6.30;99.90
52267;DHT22;38223;50.940;4.034;2024-02-26T04:39:19;6.20;99.90
52267;DHT22;38223;50.940;4.034;2024-02-26T04:41:47;6.20;99.90
52267;DHT22;38223;50.940;4.034;2024-02-26T04:44:17;6.20;99.90
52267;DHT22;38223;50.940;4.034;2024-02-26T04:46:47;6.20;99.90
52267;DHT22;38223;50.940;4.034;2024-02-26T04:49:16;6.30;99.90
52267;DHT22;38223;50.940;4.034;2024-02-26T04:51:44;6.30;99.90
52267;DHT22;38223;50.940;4.034;2024-02-26T04:54:15;6.30;99.90
52267;DHT22;38223;50.940;4.034;2024-02-26T04:56:46;6.30;99.90
52267;DHT22;38223;50.940;4.034;2024-02-26T04:59:15;6.40;99.90
52267;DHT22;38223;50.940;4.034;2024-02-26T05:01:47;6.40;99.90
52267;DHT22;38223;50.940;4.034;2024-02-26T05:04:15;6.30;99.90
52267;DHT22;38223;50.940;4.034;2024-02-26T05:06:44;6.40;99.90
52267;DHT22;38223;50.940;4.034;2024-02-26T05:09:13;6.40;99.90
52267;DHT22;38223;50.940;4.034;2024-02-26T05:11:43;6.40;99.90
52267;DHT22;38223;50.940;4.034;2024-02-26T05:14:15;6.50;99.90
52267;DHT22;38223;50.940;4.034;2024-02-26T05:16:47;6.50;99.90
52267;DHT22;38223;50.940;4.034;2024-02-26T05:19:15;6.40;99.90
52267;DHT22;38223;50.940;4.034;2024-02-26T05:21:46;6.40;99.90
52267;DHT22;38223;50.940;4.034;2024-02-26T05:24:16;6.40;99.90
52267;DHT22;38223;50.940;4.034;2024-02-26T05:26:48;6.40;99.90
52267;DHT22;38223;50.940;4.034;2024-02-26T05:29:19;6.40;99.90
52267;DHT22;38223;50.940;4.034;2024-02-26T05:31:50;6.50;99.90
52267;DHT22;38223;50.940;4.034;2024-02-26T05:34:22;6.50;99.90
52267;DHT22;38223;50.940;4.034;2024-02-26T05:36:49;6.40;99.90
52267;DHT22;38223;50.940;4.034;2024-02-26T05:39:16;6.50;99.90
52267;DHT22;38223;50.940;4.034;2024-02-26T05:41:43;6.50;99.90
52267;DHT22;38223;50.940;4.034;2024-02-26T05:44:15;6.40;99.90
52267;DHT22;38223;50.940;4.034;2024-02-26T05:46:42;6.40;99.90
52267;DHT22;38223;50.940;4.034;2024-02-26T05:49:12;6.40;99.90
52267;DHT22;38223;50.940;4.034;2024-02-26T05:51:42;6.40;99.90
52267;DHT22;38223;50.940;4.034;2024-02-26T05:54:12;6.40;99.90
52267;DHT22;38223;50.940;4.034;2024-02-26T05:56:40;6.50;99.90
52267;DHT22;38223;50.940;4.034;2024-02-26T05:59:12;6.50;99.90
52267;DHT22;38223;50.940;4.034;2024-02-26T06:01:42;6.50;99.90
52267;DHT22;38223;50.940;4.034;2024-02-26T06:04:13;6.50;99.90
52267;DHT22;38223;50.940;4.034;2024-02-26T06:06:42;6.40;99.90
52267;DHT22;38223;50.940;4.034;2024-02-26T06:09:11;6.50;99.90
52267;DHT22;38223;50.940;4.034;2024-02-26T06:11:39;6.40;99.90
52267;DHT22;38223;50.940;4.034;2024-02-26T06:14:09;6.30;99.90
52267;DHT22;38223;50.940;4.034;2024-02-26T06:16:41;6.30;99.90
52267;DHT22;38223;50.940;4.034;2024-02-26T06:19:11;6.30;99.90
52267;DHT22;38223;50.940;4.034;2024-02-26T06:21:41;6.30;99.90
52267;DHT22;38223;50.940;4.034;2024-02-26T06:24:09;6.30;99.90
52267;DHT22;38223;50.940;4.034;2024-02-26T06:26:39;6.30;99.90
52267;DHT22;38223;50.940;4.034;2024-02-26T06:29:10;6.30;99.90
52267;DHT22;38223;50.940;4.034;2024-02-26T06:31:41;6.40;99.90
52267;DHT22;38223;50.940;4.034;2024-02-26T06:34:09;6.40;99.90
52267;DHT22;38223;50.940;4.034;2024-02-26T06:36:41;6.40;99.90
52267;DHT22;38223;50.940;4.034;2024-02-26T06:39:10;6.40;99.90
52267;DHT22;38223;50.940;4.034;2024-02-26T06:41:38;6.30;99.90
52267;DHT22;38223;50.940;4.034;2024-02-26T06:44:05;6.40;99.90
52267;DHT22;38223;50.940;4.034;2024-02-26T06:46:36;6.30;99.90
52267;DHT22;38223;50.940;4.034;2024-02-26T06:49:04;6.40;99.90
52267;DHT22;38223;50.940;4.034;2024-02-26T06:51:32;6.40;99.90
52267;DHT22;38223;50.940;4.034;2024-02-26T06:54:00;6.30;99.90
52267;DHT22;38223;50.940;4.034;2024-02-26T06:56:30;6.30;99.90
52267;DHT22;38223;50.940;4.034;2024-02-26T07:01:47;6.30;99.90
52267;DHT22;38223;50.940;4.034;2024-02-26T07:04:15;6.40;99.90
52267;DHT22;38223;50.940;4.034;2024-02-26T07:06:42;6.60;99.90
52267;DHT22;38223;50.940;4.034;2024-02-26T07:09:13;6.40;99.90
52267;DHT22;38223;50.940;4.034;2024-02-26T07:11:43;6.30;99.90
52267;DHT22;38223;50.940;4.034;2024-02-26T07:14:10;6.40;99.90
52267;DHT22;38223;50.940;4.034;2024-02-26T07:16:39;6.30;99.90
52267;DHT22;38223;50.940;4.034;2024-02-26T07:19:07;6.40;99.90
52267;DHT22;38223;50.940;4.034;2024-02-26T07:21:35;6.40;99.90
52267;DHT22;38223;50.940;4.034;2024-02-26T07:24:07;6.40;99.90
52267;DHT22;38223;50.940;4.034;2024-02-26T07:26:34;6.40;99.90
52267;DHT22;38223;50.940;4.034;2024-02-26T07:29:03;6.30;99.90
52267;DHT22;38223;50.940;4.034;2024-02-26T07:31:37;6.40;99.90
52267;DHT22;38223;50.940;4.034;2024-02-26T07:34:09;6.30;99.90
52267;DHT22;38223;50.940;4.034;2024-02-26T07:36:36;6.30;99.90
52267;DHT22;38223;50.940;4.034;2024-02-26T07:39:05;6.20;99.90
52267;DHT22;38223;50.940;4.034;2024-02-26T07:41:34;6.40;99.90
52267;DHT22;38223;50.940;4.034;2024-02-26T07:44:04;6.30;99.90
52267;DHT22;38223;50.940;4.034;2024-02-26T07:46:34;6.20;99.90
52267;DHT22;38223;50.940;4.034;2024-02-26T07:49:03;6.20;99.90
52267;DHT22;38223;50.940;4.034;2024-02-26T07:51:32;6.20;99.90
52267;DHT22;38223;50.940;4.034;2024-02-26T07:53:59;6.20;99.90
52267;DHT22;38223;50.940;4.034;2024-02-26T07:56:30;6.30;99.90
52267;DHT22;38223;50.940;4.034;2024-02-26T07:58:57;6.40;99.90
52267;DHT22;38223;50.940;4.034;2024-02-26T08:01:24;6.60;99.90
52267;DHT22;38223;50.940;4.034;2024-02-26T08:03:55;6.70;99.90
52267;DHT22;38223;50.940;4.034;2024-02-26T08:06:23;6.60;99.90
52267;DHT22;38223;50.940;4.034;2024-02-26T08:08:51;6.40;99.90
52267;DHT22;38223;50.940;4.034;2024-02-26T08:11:19;6.40;99.90
52267;DHT22;38223;50.940;4.034;2024-02-26T08:13:49;6.30;99.90
52267;DHT22;38223;50.940;4.034;2024-02-26T08:16:24;6.30;99.90
52267;DHT22;38223;50.940;4.034;2024-02-26T08:18:53;6.20;99.90
52267;DHT22;38223;50.940;4.034;2024-02-26T08:24:12;6.10;99.90
52267;DHT22;38223;50.940;4.034;2024-02-26T08:26:41;6.10;99.90
52267;DHT22;38223;50.940;4.034;2024-02-26T08:29:08;6.10;99.90
52267;DHT22;38223;50.940;4.034;2024-02-26T08:31:35;6.20;99.90
52267;DHT22;38223;50.940;4.034;2024-02-26T08:34:07;6.20;99.90
52267;DHT22;38223;50.940;4.034;2024-02-26T08:36:35;6.20;99.90
52267;DHT22;38223;50.940;4.034;2024-02-26T08:39:04;6.20;99.90
52267;DHT22;38223;50.940;4.034;2024-02-26T08:41:31;6.20;99.90
52267;DHT22;38223;50.940;4.034;2024-02-26T08:43:58;6.20;99.90
52267;DHT22;38223;50.940;4.034;2024-02-26T08:46:24;6.20;99.90
52267;DHT22;38223;50.940;4.034;2024-02-26T08:48:52;6.10;99.90
52267;DHT22;38223;50.940;4.034;2024-02-26T08:51:21;6.10;99.90
52267;DHT22;38223;50.940;4.034;2024-02-26T08:53:50;6.10;99.90
52267;DHT22;38223;50.940;4.034;2024-02-26T08:56:19;6.20;99.90
52267;DHT22;38223;50.940;4.034;2024-02-26T08:58:50;6.10;99.90
52267;DHT22;38223;50.940;4.034;2024-02-26T09:01:19;6.20;99.90
52267;DHT22;38223;50.940;4.034;2024-02-26T09:03:53;6.20;99.90
52267;DHT22;38223;50.940;4.034;2024-02-26T09:06:22;6.20;99.90
52267;DHT22;38223;50.940;4.034;2024-02-26T09:08:51;6.20;99.90
52267;DHT22;38223;50.940;4.034;2024-02-26T09:11:18;6.20;99.90
52267;DHT22;38223;50.940;4.034;2024-02-26T09:13:45;6.20;99.90
52267;DHT22;38223;50.940;4.034;2024-02-26T09:16:14;6.20;99.90
52267;DHT22;38223;50.940;4.034;2024-02-26T09:18:43;6.20;99.90
52267;DHT22;38223;50.940;4.034;2024-02-26T09:21:11;6.30;99.90
52267;DHT22;38223;50.940;4.034;2024-02-26T09:23:38;6.30;99.90
52267;DHT22;38223;50.940;4.034;2024-02-26T09:26:08;6.30;99.90
52267;DHT22;38223;50.940;4.034;2024-02-26T09:28:36;6.30;99.90
52267;DHT22;38223;50.940;4.034;2024-02-26T09:31:06;6.20;99.90
52267;DHT22;38223;50.940;4.034;2024-02-26T09:33:36;6.20;99.90
52267;DHT22;38223;50.940;4.034;2024-02-26T09:36:06;6.20;99.90
52267;DHT22;38223;50.940;4.034;2024-02-26T09:38:33;6.10;99.90
52267;DHT22;38223;50.940;4.034;2024-02-26T09:41:02;6.10;99.90
52267;DHT22;38223;50.940;4.034;2024-02-26T09:43:36;6.20;99.90
52267;DHT22;38223;50.940;4.034;2024-02-26T09:46:05;6.20;99.90
52267;DHT22;38223;50.940;4.034;2024-02-26T09:48:35;6.10;99.90
52267;DHT22;38223;50.940;4.034;2024-02-26T09:51:04;6.10;99.90
52267;DHT22;38223;50.940;4.034;2024-02-26T09:53:33;6.10;99.90
52267;DHT22;38223;50.940;4.034;2024-02-26T09:56:03;6.10;99.90
52267;DHT22;38223;50.940;4.034;2024-02-26T09:58:32;6.00;99.90
52267;DHT22;38223;50.940;4.034;2024-02-26T10:01:23;6.00;99.90
52267;DHT22;38223;50.940;4.034;2024-02-26T10:03:54;6.00;99.90
52267;DHT22;38223;50.940;4.034;2024-02-26T10:06:24;6.00;99.90
52267;DHT22;38223;50.940;4.034;2024-02-26T10:08:54;6.30;99.90
52267;DHT22;38223;50.940;4.034;2024-02-26T10:11:24;6.20;99.90
52267;DHT22;38223;50.940;4.034;2024-02-26T10:14:03;6.10;99.90
52267;DHT22;38223;50.940;4.034;2024-02-26T10:16:26;6.10;99.90
52267;DHT22;38223;50.940;4.034;2024-02-26T10:18:59;6.00;99.90
52267;DHT22;38223;50.940;4.034;2024-02-26T10:21:30;6.00;99.90
52267;DHT22;38223;50.940;4.034;2024-02-26T10:23:58;6.00;99.90
52267;DHT22;38223;50.940;4.034;2024-02-26T10:26:28;6.00;99.90
52267;DHT22;38223;50.940;4.034;2024-02-26T10:28:59;6.00;99.90
52267;DHT22;38223;50.940;4.034;2024-02-26T10:31:26;5.90;99.90
52267;DHT22;38223;50.940;4.034;2024-02-26T10:33:58;5.90;99.90
52267;DHT22;38223;50.940;4.034;2024-02-26T10:36:26;6.00;99.90
52267;DHT22;38223;50.940;4.034;2024-02-26T10:38:56;6.00;99.90
52267;DHT22;38223;50.940;4.034;2024-02-26T10:41:26;5.90;99.90
52267;DHT22;38223;50.940;4.034;2024-02-26T10:43:55;6.00;99.90
52267;DHT22;38223;50.940;4.034;2024-02-26T10:46:22;6.40;99.90
52267;DHT22;38223;50.940;4.034;2024-02-26T10:48:50;6.80;99.90
52267;DHT22;38223;50.940;4.034;2024-02-26T10:51:28;7.10;99.90
52267;DHT22;38223;50.940;4.034;2024-02-26T10:53:58;7.20;99.90
52267;DHT22;38223;50.940;4.034;2024-02-26T10:56:28;7.10;99.90
52267;DHT22;38223;50.940;4.034;2024-02-26T10:58:58;7.30;99.90
52267;DHT22;38223;50.940;4.034;2024-02-26T11:01:28;7.10;99.90
52267;DHT22;38223;50.940;4.034;2024-02-26T11:03:57;7.30;99.90
52267;DHT22;38223;50.940;4.034;2024-02-26T11:06:27;7.40;99.90
52267;DHT22;38223;50.940;4.034;2024-02-26T11:08:58;7.10;99.90
52267;DHT22;38223;50.940;4.034;2024-02-26T11:11:34;7.00;99.90
52267;DHT22;38223;50.940;4.034;2024-02-26T11:14:02;7.00;99.90
52267;DHT22;38223;50.940;4.034;2024-02-26T11:16:32;7.10;99.90
52267;DHT22;38223;50.940;4.034;2024-02-26T11:19:05;6.80;99.90
52267;DHT22;38223;50.940;4.034;2024-02-26T11:21:34;6.70;99.90
52267;DHT22;38223;50.940;4.034;2024-02-26T11:24:08;6.90;99.90
52267;DHT22;38223;50.940;4.034;2024-02-26T11:26:38;7.10;99.90
52267;DHT22;38223;50.940;4.034;2024-02-26T11:29:07;7.20;99.90
52267;DHT22;38223;50.940;4.034;2024-02-26T11:31:36;7.00;99.90
52267;DHT22;38223;50.940;4.034;2024-02-26T11:34:10;6.90;99.90
52267;DHT22;38223;50.940;4.034;2024-02-26T11:36:38;7.30;99.90
52267;DHT22;38223;50.940;4.034;2024-02-26T11:39:10;6.70;99.90
52267;DHT22;38223;50.940;4.034;2024-02-26T11:41:38;6.50;99.90
52267;DHT22;38223;50.940;4.034;2024-02-26T11:44:06;6.20;99.90
52267;DHT22;38223;50.940;4.034;2024-02-26T11:46:39;6.10;99.90
52267;DHT22;38223;50.940;4.034;2024-02-26T11:51:57;6.00;99.90
52267;DHT22;38223;50.940;4.034;2024-02-26T11:57:24;5.90;99.90
52267;DHT22;38223;50.940;4.034;2024-02-26T11:59:51;5.90;99.90
52267;DHT22;38223;50.940;4.034;2024-02-26T12:05:07;5.90;99.90
52267;DHT22;38223;50.940;4.034;2024-02-26T12:07:35;5.90;99.90
52267;DHT22;38223;50.940;4.034;2024-02-26T12:10:15;5.90;99.90
52267;DHT22;38223;50.940;4.034;2024-02-26T12:12:44;5.90;99.90
52267;DHT22;38223;50.940;4.034;2024-02-26T12:15:12;5.90;99.90
52267;DHT22;38223;50.940;4.034;2024-02-26T12:17:42;5.90;99.90
52267;DHT22;38223;50.940;4.034;2024-02-26T12:20:11;5.90;99.90
52267;DHT22;38223;50.940;4.034;2024-02-26T12:22:41;5.80;99.90
52267;DHT22;38223;50.940;4.034;2024-02-26T12:25:10;5.80;99.90
52267;DHT22;38223;50.940;4.034;2024-02-26T12:27:39;5.90;99.90
52267;DHT22;38223;50.940;4.034;2024-02-26T12:30:07;5.90;99.90
52267;DHT22;38223;50.940;4.034;2024-02-26T12:32:36;5.90;99.90
52267;DHT22;38223;50.940;4.034;2024-02-26T12:35:07;5.80;99.90
52267;DHT22;38223;50.940;4.034;2024-02-26T12:37:35;5.80;99.90
52267;DHT22;38223;50.940;4.034;2024-02-26T12:40:04;5.90;99.90
52267;DHT22;38223;50.940;4.034;2024-02-26T12:42:32;5.90;99.90
52267;DHT22;38223;50.940;4.034;2024-02-26T12:45:02;5.90;99.90
52267;DHT22;38223;50.940;4.034;2024-02-26T12:47:31;5.90;99.90
52267;DHT22;38223;50.940;4.034;2024-02-26T12:50:03;5.80;99.90
52267;DHT22;38223;50.940;4.034;2024-02-26T12:52:32;5.80;99.90
52267;DHT22;38223;50.940;4.034;2024-02-26T12:55:03;5.90;99.90
52267;DHT22;38223;50.940;4.034;2024-02-26T12:57:34;5.90;99.90
52267;DHT22;38223;50.940;4.034;2024-02-26T13:00:04;5.90;99.90
52267;DHT22;38223;50.940;4.034;2024-02-26T13:02:35;5.90;99.90
52267;DHT22;38223;50.940;4.034;2024-02-26T13:05:06;5.80;99.90
52267;DHT22;38223;50.940;4.034;2024-02-26T13:07:34;5.80;99.90
52267;DHT22;38223;50.940;4.034;2024-02-26T13:10:03;5.80;99.90
52267;DHT22;38223;50.940;4.034;2024-02-26T13:12:32;5.80;99.90
52267;DHT22;38223;50.940;4.034;2024-02-26T13:15:03;5.90;99.90
52267;DHT22;38223;50.940;4.034;2024-02-26T13:17:33;5.80;99.90
52267;DHT22;38223;50.940;4.034;2024-02-26T13:20:04;5.80;99.90
52267;DHT22;38223;50.940;4.034;2024-02-26T13:22:33;5.90;99.90
52267;DHT22;38223;50.940;4.034;2024-02-26T13:25:04;5.90;99.90
52267;DHT22;38223;50.940;4.034;2024-02-26T13:27:36;5.80;99.90
52267;DHT22;38223;50.940;4.034;2024-02-26T13:30:08;5.90;99.90
52267;DHT22;38223;50.940;4.034;2024-02-26T13:32:36;5.90;99.90
52267;DHT22;38223;50.940;4.034;2024-02-26T13:35:06;5.90;99.90
52267;DHT22;38223;50.940;4.034;2024-02-26T13:37:33;6.00;99.90
52267;DHT22;38223;50.940;4.034;2024-02-26T13:40:06;6.00;99.90
52267;DHT22;38223;50.940;4.034;2024-02-26T13:42:35;6.00;99.90
52267;DHT22;38223;50.940;4.034;2024-02-26T13:45:04;5.90;99.90
52267;DHT22;38223;50.940;4.034;2024-02-26T13:47:34;5.90;99.90
52267;DHT22;38223;50.940;4.034;2024-02-26T13:50:06;5.90;99.90
52267;DHT22;38223;50.940;4.034;2024-02-26T13:52:35;6.00;99.90
52267;DHT22;38223;50.940;4.034;2024-02-26T13:57:55;6.10;99.90
52267;DHT22;38223;50.940;4.034;2024-02-26T14:00:30;6.10;99.90
52267;DHT22;38223;50.940;4.034;2024-02-26T14:02:57;6.10;99.90
52267;DHT22;38223;50.940;4.034;2024-02-26T14:05:26;6.10;99.90
52267;DHT22;38223;50.940;4.034;2024-02-26T14:07:55;6.10;99.90
52267;DHT22;38223;50.940;4.034;2024-02-26T14:10:24;6.10;99.90
52267;DHT22;38223;50.940;4.034;2024-02-26T14:12:54;6.10;99.90
52267;DHT22;38223;50.940;4.034;2024-02-26T14:15:24;6.10;99.90
52267;DHT22;38223;50.940;4.034;2024-02-26T14:17:53;6.00;99.90
52267;DHT22;38223;50.940;4.034;2024-02-26T14:20:24;6.00;99.90
52267;DHT22;38223;50.940;4.034;2024-02-26T14:22:52;5.90;99.90
52267;DHT22;38223;50.940;4.034;2024-02-26T14:25:24;5.90;99.90
52267;DHT22;38223;50.940;4.034;2024-02-26T14:27:58;5.90;99.90
52267;DHT22;38223;50.940;4.034;2024-02-26T14:30:27;5.90;99.90
52267;DHT22;38223;50.940;4.034;2024-02-26T14:32:55;5.90;99.90
52267;DHT22;38223;50.940;4.034;2024-02-26T14:35:27;5.90;99.90
52267;DHT22;38223;50.940;4.034;2024-02-26T14:37:54;5.90;99.90
52267;DHT22;38223;50.940;4.034;2024-02-26T14:40:23;5.90;99.90
52267;DHT22;38223;50.940;4.034;2024-02-26T14:42:54;5.80;99.90
52267;DHT22;38223;50.940;4.034;2024-02-26T14:45:25;5.80;99.90
52267;DHT22;38223;50.940;4.034;2024-02-26T14:47:55;5.80;99.90
52267;DHT22;38223;50.940;4.034;2024-02-26T14:50:23;6.20;99.90
52267;DHT22;38223;50.940;4.034;2024-02-26T14:52:51;6.40;99.90
52267;DHT22;38223;50.940;4.034;2024-02-26T14:55:22;6.40;99.90
52267;DHT22;38223;50.940;4.034;2024-02-26T14:57:50;6.20;99.90
52267;DHT22;38223;50.940;4.034;2024-02-26T15:00:21;6.20;99.90
52267;DHT22;38223;50.940;4.034;2024-02-26T15:02:49;6.30;99.90
52267;DHT22;38223;50.940;4.034;2024-02-26T15:05:18;6.30;99.90
52267;DHT22;38223;50.940;4.034;2024-02-26T15:07:45;6.30;99.90
52267;DHT22;38223;50.940;4.034;2024-02-26T15:10:14;6.20;99.90
52267;DHT22;38223;50.940;4.034;2024-02-26T15:12:42;6.10;99.90
52267;DHT22;38223;50.940;4.034;2024-02-26T15:15:11;6.10;99.90
52267;DHT22;38223;50.940;4.034;2024-02-26T15:17:42;6.00;99.90
52267;DHT22;38223;50.940;4.034;2024-02-26T15:20:12;6.10;99.90
52267;DHT22;38223;50.940;4.034;2024-02-26T15:22:42;6.00;99.90
52267;DHT22;38223;50.940;4.034;2024-02-26T15:25:14;6.00;99.90
52267;DHT22;38223;50.940;4.034;2024-02-26T15:27:43;6.00;99.90
52267;DHT22;38223;50.940;4.034;2024-02-26T15:30:11;6.10;99.90
52267;DHT22;38223;50.940;4.034;2024-02-26T15:32:38;6.10;99.90
52267;DHT22;38223;50.940;4.034;2024-02-26T15:35:07;6.20;99.90
52267;DHT22;38223;50.940;4.034;2024-02-26T15:37:35;6.20;99.90
52267;DHT22;38223;50.940;4.034;2024-02-26T15:40:04;6.10;99.90
52267;DHT22;38223;50.940;4.034;2024-02-26T15:42:34;6.10;99.90
52267;DHT22;38223;50.940;4.034;2024-02-26T15:45:03;6.00;99.90
52267;DHT22;38223;50.940;4.034;2024-02-26T15:47:30;6.00;99.90
52267;DHT22;38223;50.940;4.034;2024-02-26T15:49:57;6.10;99.90
52267;DHT22;38223;50.940;4.034;2024-02-26T15:52:29;6.10;99.90
52267;DHT22;38223;50.940;4.034;2024-02-26T15:54:57;6.00;99.90
52267;DHT22;38223;50.940;4.034;2024-02-26T15:57:24;6.00;99.90
52267;DHT22;38223;50.940;4.034;2024-02-26T15:59:50;6.00;99.90
52267;DHT22;38223;50.940;4.034;2024-02-26T16:02:19;6.00;99.90
52267;DHT22;38223;50.940;4.034;2024-02-26T16:04:47;6.00;99.90
52267;DHT22;38223;50.940;4.034;2024-02-26T16:07:18;6.10;99.90
52267;DHT22;38223;50.940;4.034;2024-02-26T16:09:44;6.10;99.90
52267;DHT22;38223;50.940;4.034;2024-02-26T16:12:14;6.00;99.90
52267;DHT22;38223;50.940;4.034;2024-02-26T16:14:48;6.00;99.90
52267;DHT22;38223;50.940;4.034;2024-02-26T16:17:20;6.00;99.90
52267;DHT22;38223;50.940;4.034;2024-02-26T16:19:48;5.90;99.90